Time;durP1;ratioP1;P1;durP2;ratioP2;P2;SDS_P1;SDS_P2;PMS_P1;PMS_P2;Temp;Humidity;BMP_temperature;BMP_pressure;BME280_temperature;BME280_humidity;BME280_pressure;Samples;Min_cycle;Max_cycle;Signal;HPM_P1;HPM_P2
2023/12/13 00:00:23;;;;;;;6.15;2.50;;;;;;;8.70;100.00;99262.25;5054369;28;20017;-72
2023/12/13 00:02:48;;;;;;;6.80;1.98;;;;;;;8.66;100.00;99264.91;5056260;28;20127;-72
2023/12/13 00:05:14;;;;;;;9.57;2.08;;;;;;;8.61;100.00;99257.22;5058145;28;20032;-72
2023/12/13 00:07:39;;;;;;;4.93;1.80;;;;;;;8.75;100.00;99261.91;5050188;28;20060;-72
2023/12/13 00:10:05;;;;;;;4.13;2.00;;;;;;;8.88;100.00;99260.41;5058152;28;20021;-72
2023/12/13 00:12:30;;;;;;;5.40;2.78;;;;;;;8.71;100.00;99261.84;5058359;28;20075;-72
2023/12/13 00:14:56;;;;;;;3.80;2.35;;;;;;;8.68;100.00;99257.25;5051812;28;20029;-72
2023/12/13 00:17:21;;;;;;;6.63;3.38;;;;;;;8.73;100.00;99254.19;5055499;28;20063;-72
2023/12/13 00:19:47;;;;;;;4.03;2.17;;;;;;;8.78;100.00;99248.50;5052486;28;20064;-72
2023/12/13 00:22:12;;;;;;;4.55;2.65;;;;;;;8.68;100.00;99246.53;5057306;28;20065;-72
2023/12/13 00:24:38;;;;;;;5.75;2.42;;;;;;;8.63;100.00;99249.53;5059879;28;20123;-72
2023/12/13 00:27:03;;;;;;;5.28;2.65;;;;;;;8.72;100.00;99244.63;5052635;28;20123;-72
2023/12/13 00:29:29;;;;;;;5.57;2.03;;;;;;;8.64;100.00;99243.06;5054866;28;20075;-72
2023/12/13 00:31:54;;;;;;;3.78;1.73;;;;;;;8.69;100.00;99231.94;5054637;28;20059;-72
2023/12/13 00:34:20;;;;;;;5.43;2.47;;;;;;;8.74;100.00;99234.28;5067797;28;20055;-72
2023/12/13 00:36:45;;;;;;;4.07;1.52;;;;;;;8.46;100.00;99238.75;5057987;28;20387;-72
2023/12/13 00:39:11;;;;;;;3.63;2.63;;;;;;;8.55;100.00;99231.91;5073861;28;20450;-73
2023/12/13 00:41:37;;;;;;;4.30;2.33;;;;;;;8.54;100.00;99233.03;5063721;28;20094;-72
2023/12/13 00:44:03;;;;;;;3.20;1.88;;;;;;;8.60;100.00;99234.22;5053737;28;20029;-72
2023/12/13 00:46:29;;;;;;;6.30;2.42;;;;;;;8.45;100.00;99219.19;5052583;28;20524;-72
2023/12/13 00:48:54;;;;;;;4.25;1.95;;;;;;;8.43;100.00;99210.75;5054352;28;20056;-72
2023/12/13 00:51:22;;;;;;;4.38;1.60;;;;;;;8.49;100.00;99211.16;5054799;28;20071;-73
2023/12/13 00:53:48;;;;;;;4.15;1.98;;;;;;;8.57;100.00;99216.19;5062421;28;20037;-72
2023/12/13 00:56:14;;;;;;;4.07;1.95;;;;;;;8.56;100.00;99216.56;5061421;28;20429;-72
2023/12/13 00:58:39;;;;;;;4.65;1.70;;;;;;;8.41;100.00;99213.03;5053049;28;20037;-72
2023/12/13 01:01:06;;;;;;;3.30;1.83;;;;;;;8.57;100.00;99202.78;5050796;28;20091;-72
2023/12/13 01:03:32;;;;;;;4.80;2.03;;;;;;;8.53;100.00;99203.91;5056485;28;20051;-73
2023/12/13 01:05:57;;;;;;;4.55;2.13;;;;;;;8.75;100.00;99203.59;5072498;28;20036;-72
2023/12/13 01:08:22;;;;;;;3.08;1.75;;;;;;;8.51;100.00;99198.91;5063140;28;20032;-73
2023/12/13 01:10:48;;;;;;;1.40;1.30;;;;;;;8.52;100.00;99197.00;5060954;28;20466;-73
2023/12/13 01:13:13;;;;;;;1.95;1.23;;;;;;;8.46;100.00;99203.88;5062287;28;20416;-73
2023/12/13 01:15:39;;;;;;;1.60;1.33;;;;;;;8.31;100.00;99203.03;5055674;28;20029;-72
2023/12/13 01:18:04;;;;;;;2.55;1.52;;;;;;;8.54;100.00;99194.69;5035258;28;20028;-72
2023/12/13 01:20:32;;;;;;;3.67;1.80;;;;;;;8.44;100.00;99193.50;5043323;28;20020;-72
2023/12/13 01:22:57;;;;;;;1.77;1.23;;;;;;;8.34;100.00;99193.47;5053208;28;20089;-72
2023/12/13 01:25:23;;;;;;;2.05;1.10;;;;;;;8.49;100.00;99193.16;5057453;28;20041;-72
2023/12/13 01:27:50;;;;;;;2.33;0.93;;;;;;;8.55;100.00;99188.97;5058729;28;20039;-72
2023/12/13 01:30:16;;;;;;;3.28;1.42;;;;;;;8.20;100.00;99194.13;5064347;28;20017;-72
2023/12/13 01:32:41;;;;;;;1.63;1.15;;;;;;;8.34;100.00;99204.19;5066202;28;20043;-72
2023/12/13 01:35:07;;;;;;;1.17;1.08;;;;;;;8.47;100.00;99208.88;5058321;28;20041;-72
2023/12/13 01:37:33;;;;;;;1.60;0.98;;;;;;;8.62;100.00;99213.16;5059689;28;20495;-72
2023/12/13 01:39:58;;;;;;;4.13;1.15;;;;;;;8.50;100.00;99210.78;5057834;28;20051;-72
2023/12/13 01:42:24;;;;;;;1.70;1.13;;;;;;;8.53;100.00;99202.00;5058351;28;20036;-73
2023/12/13 01:44:49;;;;;;;1.67;1.27;;;;;;;8.53;100.00;99210.03;5064589;28;20063;-72
2023/12/13 01:47:16;;;;;;;1.05;0.93;;;;;;;8.36;100.00;99208.06;5053770;28;20116;-72
2023/12/13 01:49:44;;;;;;;2.10;1.35;;;;;;;8.42;100.00;99203.09;5054412;28;20781;-72
2023/12/13 01:52:10;;;;;;;1.63;0.93;;;;;;;8.27;100.00;99210.28;5069605;28;20033;-72
2023/12/13 01:54:37;;;;;;;3.58;1.48;;;;;;;8.44;100.00;99208.84;5056834;28;20415;-72
2023/12/13 01:57:03;;;;;;;1.35;1.00;;;;;;;8.29;100.00;99197.25;5059238;28;20033;-72
2023/12/13 01:59:30;;;;;;;1.92;1.15;;;;;;;8.48;100.00;99196.97;5044982;28;20814;-72
2023/12/13 02:01:56;;;;;;;0.80;0.77;;;;;;;8.15;100.00;99195.25;5057720;28;20439;-72
2023/12/13 02:04:27;;;;;;;3.22;1.23;;;;;;;8.12;100.00;99193.31;5046611;28;20079;-72
2023/12/13 02:06:53;;;;;;;1.10;1.00;;;;;;;8.11;100.00;99185.63;5081505;28;20194;-72
2023/12/13 02:09:19;;;;;;;0.70;0.70;;;;;;;8.31;100.00;99186.16;5057847;28;20112;-72
2023/12/13 02:11:45;;;;;;;1.45;1.13;;;;;;;8.38;100.00;99173.53;5053640;28;22100;-72
2023/12/13 02:14:13;;;;;;;11.35;1.77;;;;;;;8.21;100.00;99171.53;5050762;28;20021;-72
2023/12/13 02:16:39;;;;;;;2.75;1.30;;;;;;;8.25;100.00;99175.03;5052195;28;20044;-72
2023/12/13 02:19:08;;;;;;;1.88;0.95;;;;;;;8.35;100.00;99168.19;5052951;28;20025;-72
2023/12/13 02:21:34;;;;;;;1.38;1.02;;;;;;;8.24;100.00;99165.44;5059854;28;20107;-72
2023/12/13 02:24:03;;;;;;;2.67;1.27;;;;;;;8.44;100.00;99155.94;5054430;28;20124;-72
2023/12/13 02:26:29;;;;;;;1.58;1.30;;;;;;;8.06;100.00;99159.97;5061986;28;20036;-72
2023/12/13 02:28:55;;;;;;;2.03;1.15;;;;;;;8.16;100.00;99158.47;5057989;28;20176;-72
2023/12/13 02:31:22;;;;;;;1.30;1.20;;;;;;;8.25;100.00;99153.56;5056160;28;20040;-72
2023/12/13 02:33:50;;;;;;;2.55;1.38;;;;;;;8.07;100.00;99155.38;5071665;28;20033;-72
2023/12/13 02:36:16;;;;;;;1.67;0.98;;;;;;;8.20;100.00;99159.28;5062242;28;20431;-72
2023/12/13 02:38:41;;;;;;;2.35;1.15;;;;;;;8.09;100.00;99161.13;5060188;28;20040;-72
2023/12/13 02:41:08;;;;;;;1.88;1.13;;;;;;;7.88;100.00;99156.41;5067904;28;20043;-72
2023/12/13 02:43:33;;;;;;;2.17;1.52;;;;;;;8.09;100.00;99159.19;5056640;28;20055;-72
2023/12/13 02:45:59;;;;;;;0.63;0.63;;;;;;;8.16;100.00;99163.84;5056158;28;20021;-72
2023/12/13 02:48:24;;;;;;;2.92;1.40;;;;;;;8.06;100.00;99151.91;5047135;28;20036;-72
2023/12/13 02:50:52;;;;;;;1.45;1.00;;;;;;;8.10;100.00;99149.25;5060250;28;20131;-72
2023/12/13 02:53:18;;;;;;;1.55;1.38;;;;;;;7.89;100.00;99146.44;5067300;28;20025;-72
2023/12/13 02:55:43;;;;;;;1.52;1.25;;;;;;;7.80;100.00;99148.69;5062375;28;20491;-72
2023/12/13 02:58:09;;;;;;;1.52;1.00;;;;;;;8.05;100.00;99147.69;5057182;28;20460;-72
2023/12/13 03:00:37;;;;;;;3.83;1.63;;;;;;;8.09;100.00;99151.16;5055055;28;20041;-72
2023/12/13 03:03:02;;;;;;;1.10;0.90;;;;;;;8.04;100.00;99142.72;5055925;28;20418;-72
2023/12/13 03:05:28;;;;;;;1.63;0.85;;;;;;;8.02;100.00;99153.81;5055387;28;20032;-72
2023/12/13 03:07:53;;;;;;;2.45;1.27;;;;;;;7.79;100.00;99149.81;5057188;28;20025;-72
2023/12/13 03:10:21;;;;;;;0.68;0.68;;;;;;;7.98;100.00;99152.25;5057911;28;20063;-72
2023/12/13 03:12:49;;;;;;;1.08;0.73;;;;;;;8.09;100.00;99161.13;5055202;28;20153;-72
2023/12/13 03:15:15;;;;;;;0.73;0.70;;;;;;;8.05;100.00;99153.06;5057811;28;20024;-72
2023/12/13 03:17:40;;;;;;;0.70;0.70;;;;;;;7.98;100.00;99146.88;5061345;28;20555;-72
2023/12/13 03:20:06;;;;;;;0.65;0.60;;;;;;;8.07;100.00;99150.00;5060059;28;20024;-72
2023/12/13 03:22:32;;;;;;;1.05;0.95;;;;;;;8.16;100.00;99148.53;5061581;28;20035;-72
2023/12/13 03:24:57;;;;;;;0.73;0.73;;;;;;;8.13;100.00;99151.16;5063187;28;20028;-72
2023/12/13 03:27:23;;;;;;;1.00;1.00;;;;;;;8.20;100.00;99143.97;5062204;28;20419;-72
2023/12/13 03:29:51;;;;;;;1.33;1.00;;;;;;;8.17;100.00;99147.38;5058723;28;20086;-72
2023/12/13 03:32:16;;;;;;;1.65;0.70;;;;;;;8.09;100.00;99145.06;5078306;28;20523;-72
2023/12/13 03:34:42;;;;;;;0.90;0.73;;;;;;;8.20;100.00;99137.81;5072382;28;20044;-72
2023/12/13 03:37:08;;;;;;;0.60;0.60;;;;;;;8.10;100.00;99146.56;5054816;28;20036;-73
2023/12/13 03:39:33;;;;;;;0.70;0.70;;;;;;;8.27;100.00;99145.91;5055574;28;20652;-72
2023/12/13 03:41:59;;;;;;;0.98;0.70;;;;;;;8.06;100.00;99157.28;5055529;28;20067;-72
2023/12/13 03:44:24;;;;;;;1.48;0.65;;;;;;;8.28;100.00;99155.53;5055865;28;20029;-72
2023/12/13 03:46:50;;;;;;;1.20;0.85;;;;;;;8.17;100.00;99144.69;5063394;28;20036;-73
2023/12/13 03:49:16;;;;;;;0.68;0.65;;;;;;;8.06;100.00;99140.44;5061147;28;20032;-71
2023/12/13 03:51:46;;;;;;;0.70;0.70;;;;;;;8.11;100.00;99140.06;5063118;28;20037;-71
2023/12/13 03:54:14;;;;;;;2.42;1.02;;;;;;;8.17;100.00;99149.28;5058868;28;20048;-71
2023/12/13 03:56:40;;;;;;;1.05;1.02;;;;;;;8.34;99.69;99140.59;5057678;28;20025;-71
2023/12/13 03:59:06;;;;;;;1.95;1.23;;;;;;;8.09;100.00;99140.44;5055718;28;20518;-71
2023/12/13 04:01:32;;;;;;;0.70;0.70;;;;;;;8.18;100.00;99148.16;5052059;28;20029;-71
2023/12/13 04:03:58;;;;;;;1.00;0.75;;;;;;;8.06;100.00;99149.25;5047080;28;20039;-71
2023/12/13 04:06:27;;;;;;;0.75;0.73;;;;;;;8.06;100.00;99141.19;5047840;28;20021;-71
2023/12/13 04:08:52;;;;;;;0.80;0.80;;;;;;;7.97;100.00;99138.09;5057214;28;20541;-71
2023/12/13 04:11:18;;;;;;;1.42;0.82;;;;;;;7.96;100.00;99127.72;5063008;28;20029;-71
2023/12/13 04:13:44;;;;;;;1.75;1.17;;;;;;;8.12;100.00;99130.88;5058555;28;20512;-71
2023/12/13 04:16:09;;;;;;;0.90;0.80;;;;;;;8.13;100.00;99135.88;5062106;28;20035;-71
2023/12/13 04:18:35;;;;;;;1.63;0.93;;;;;;;8.15;100.00;99143.53;5061441;28;20112;-72
2023/12/13 04:21:01;;;;;;;1.55;0.82;;;;;;;8.12;100.00;99138.94;5060272;28;20036;-71
2023/12/13 04:23:26;;;;;;;8.18;1.40;;;;;;;7.75;100.00;99141.78;5056914;28;20059;-71
2023/12/13 04:25:52;;;;;;;0.80;0.70;;;;;;;7.79;100.00;99134.53;5056902;28;20500;-71
2023/12/13 04:28:17;;;;;;;1.45;1.10;;;;;;;8.03;100.00;99135.81;5060649;28;20036;-71
2023/12/13 04:30:42;;;;;;;1.42;0.88;;;;;;;7.90;100.00;99135.34;5072466;28;20032;-71
2023/12/13 04:33:08;;;;;;;1.27;0.80;;;;;;;7.89;100.00;99141.09;5060495;28;20044;-71
2023/12/13 04:35:33;;;;;;;1.48;1.35;;;;;;;7.88;100.00;99134.19;5058065;28;20410;-72
2023/12/13 04:37:59;;;;;;;2.03;1.77;;;;;;;7.87;100.00;99140.69;5072384;28;20495;-71
2023/12/13 04:40:25;;;;;;;1.92;1.30;;;;;;;8.02;100.00;99140.41;5055088;28;20468;-72
2023/12/13 04:42:50;;;;;;;1.40;0.95;;;;;;;7.80;100.00;99132.63;5052139;28;20043;-71
2023/12/13 04:45:16;;;;;;;8.32;1.10;;;;;;;7.80;100.00;99132.63;5058333;28;20050;-72
2023/12/13 04:47:42;;;;;;;1.67;1.17;;;;;;;7.80;100.00;99132.63;5076570;28;20032;-72
2023/12/13 04:50:08;;;;;;;1.27;1.08;;;;;;;7.79;100.00;99131.84;5061787;28;20041;-72
2023/12/13 04:52:33;;;;;;;1.42;1.15;;;;;;;7.73;100.00;99129.88;5059602;28;20032;-72
2023/12/13 04:54:58;;;;;;;1.75;1.05;;;;;;;7.79;100.00;99126.50;5059891;28;20043;-71
2023/12/13 04:57:24;;;;;;;1.70;1.20;;;;;;;7.89;100.00;99138.41;5074294;28;20508;-72
2023/12/13 04:59:49;;;;;;;1.25;0.80;;;;;;;8.02;100.00;99135.03;5060609;28;20043;-72
2023/12/13 05:02:15;;;;;;;3.42;1.40;;;;;;;7.85;100.00;99135.72;5059046;28;20029;-71
2023/12/13 05:04:40;;;;;;;2.20;1.17;;;;;;;7.83;100.00;99137.22;5060178;28;20037;-72
2023/12/13 05:07:08;;;;;;;1.63;0.73;;;;;;;8.00;100.00;99140.00;5072367;28;20253;-72
2023/12/13 05:09:34;;;;;;;2.80;1.25;;;;;;;8.01;100.00;99138.09;5055151;28;20041;-72
2023/12/13 05:11:59;;;;;;;2.28;1.20;;;;;;;8.03;100.00;99141.19;5074317;28;20037;-71
2023/12/13 05:14:25;;;;;;;1.25;1.10;;;;;;;7.93;100.00;99139.22;5056675;28;20114;-72
2023/12/13 05:16:50;;;;;;;4.07;1.50;;;;;;;8.13;100.00;99141.22;5053996;28;20033;-72
2023/12/13 05:19:16;;;;;;;2.53;1.58;;;;;;;8.01;100.00;99138.09;5075617;28;20037;-72
2023/12/13 05:21:41;;;;;;;2.40;1.23;;;;;;;8.10;100.00;99133.94;5061712;28;20028;-72
2023/12/13 05:24:07;;;;;;;2.92;1.30;;;;;;;7.97;100.00;99131.97;5062150;28;20036;-71
2023/12/13 05:26:33;;;;;;;1.92;1.33;;;;;;;7.85;100.00;99140.31;5074077;28;20060;-72
2023/12/13 05:28:58;;;;;;;1.63;1.20;;;;;;;7.87;100.00;99133.44;5044402;28;20032;-72
2023/12/13 05:31:23;;;;;;;1.20;1.10;;;;;;;8.09;100.00;99139.69;5059213;28;20055;-72
2023/12/13 05:33:49;;;;;;;2.33;1.38;;;;;;;8.06;100.00;99140.44;5056334;28;20044;-72
2023/12/13 05:36:17;;;;;;;8.00;2.20;;;;;;;7.96;100.00;99135.75;5052393;28;20029;-71
2023/12/13 05:38:46;;;;;;;3.53;1.45;;;;;;;8.10;100.00;99143.91;5050329;28;20032;-71
2023/12/13 05:41:12;;;;;;;2.72;1.75;;;;;;;8.18;100.00;99142.78;5052026;28;20141;-72
2023/12/13 05:43:37;;;;;;;1.38;1.17;;;;;;;8.04;100.00;99140.03;5056087;28;20186;-72
2023/12/13 05:46:04;;;;;;;1.85;1.40;;;;;;;7.71;100.00;99140.19;5057215;28;20561;-72
2023/12/13 05:48:30;;;;;;;3.35;1.48;;;;;;;7.65;100.00;99139.00;5058011;28;20098;-72
2023/12/13 05:50:55;;;;;;;1.35;1.25;;;;;;;7.87;100.00;99138.03;5053859;28;20107;-72
2023/12/13 05:53:21;;;;;;;3.75;1.88;;;;;;;7.71;100.00;99138.28;5057881;28;20039;-72
2023/12/13 05:55:46;;;;;;;1.88;1.10;;;;;;;7.90;100.00;99138.03;5053009;28;20028;-72
2023/12/13 05:58:11;;;;;;;3.35;2.25;;;;;;;7.85;100.00;99145.66;5052488;28;20107;-72
2023/12/13 06:00:37;;;;;;;1.90;1.00;;;;;;;7.56;100.00;99150.06;5053480;28;20558;-72
2023/12/13 06:03:02;;;;;;;2.28;1.25;;;;;;;7.76;100.00;99142.56;5054629;28;20035;-75
2023/12/13 06:05:30;;;;;;;1.98;1.42;;;;;;;7.86;100.00;99147.97;5035897;28;20396;-72
2023/12/13 06:07:56;;;;;;;3.25;1.60;;;;;;;7.67;100.00;99147.44;5051988;28;20079;-72
2023/12/13 06:10:21;;;;;;;4.18;1.17;;;;;;;7.67;100.00;99152.78;5066219;28;20028;-72
2023/12/13 06:12:50;;;;;;;2.15;1.35;;;;;;;7.82;100.00;99157.88;5051793;28;21333;-72
2023/12/13 06:15:16;;;;;;;2.97;1.83;;;;;;;7.99;100.00;99159.91;5052795;28;20202;-72
2023/12/13 06:17:41;;;;;;;3.00;1.88;;;;;;;7.98;100.00;99152.25;5058039;28;20107;-72
2023/12/13 06:20:08;;;;;;;2.75;1.60;;;;;;;8.09;100.00;99155.78;5050521;28;20032;-72
2023/12/13 06:22:33;;;;;;;2.80;1.35;;;;;;;7.97;100.00;99158.75;5056209;28;20047;-72
2023/12/13 06:25:01;;;;;;;2.08;1.60;;;;;;;7.93;100.00;99155.28;5062532;28;20029;-72
2023/12/13 06:27:26;;;;;;;2.00;1.02;;;;;;;8.15;100.00;99165.75;5058398;28;20037;-72
2023/12/13 06:29:52;;;;;;;2.50;1.63;;;;;;;8.11;100.00;99159.59;5054193;28;20040;-72
2023/12/13 06:32:18;;;;;;;1.90;1.30;;;;;;;7.95;100.00;99161.81;5061386;28;20084;-73
2023/12/13 06:34:43;;;;;;;2.60;1.67;;;;;;;7.87;100.00;99154.09;5062488;28;20040;-72
2023/12/13 06:37:08;;;;;;;3.95;1.90;;;;;;;7.89;100.00;99157.94;5053235;28;20029;-71
2023/12/13 06:39:37;;;;;;;3.17;1.48;;;;;;;7.97;100.00;99164.91;5074272;28;20579;-71
2023/12/13 06:42:04;;;;;;;2.08;1.23;;;;;;;8.00;100.00;99158.00;5060588;28;20024;-71
2023/12/13 06:44:29;;;;;;;1.77;1.23;;;;;;;7.83;100.00;99164.03;5056461;28;20112;-72
2023/12/13 06:46:55;;;;;;;2.35;1.48;;;;;;;7.84;100.00;99168.25;5054787;28;20115;-73
2023/12/13 06:49:22;;;;;;;2.80;1.33;;;;;;;7.92;100.00;99172.50;5058997;28;20089;-73
2023/12/13 06:51:49;;;;;;;6.00;1.73;;;;;;;7.99;100.00;99161.84;5060969;28;20028;-74
2023/12/13 06:54:15;;;;;;;3.97;1.63;;;;;;;8.03;100.00;99168.75;5057855;28;20035;-73
2023/12/13 06:56:43;;;;;;;4.93;1.48;;;;;;;7.90;100.00;99172.09;5058734;28;20032;-73
2023/12/13 06:59:10;;;;;;;4.43;1.20;;;;;;;7.79;100.00;99169.34;5058146;28;20507;-74
2023/12/13 07:01:35;;;;;;;3.63;1.55;;;;;;;7.80;100.00;99172.81;5059382;28;20380;-74
2023/12/13 07:04:01;;;;;;;2.22;1.67;;;;;;;7.90;100.00;99169.41;5061592;28;20036;-73
2023/12/13 07:06:26;;;;;;;1.92;1.23;;;;;;;7.90;100.00;99167.50;5053587;28;20029;-74
2023/12/13 07:08:52;;;;;;;2.00;1.33;;;;;;;7.89;100.00;99178.63;5059025;28;20078;-73
2023/12/13 07:11:17;;;;;;;5.00;1.60;;;;;;;7.86;100.00;99172.06;5058793;28;20033;-74
2023/12/13 07:13:43;;;;;;;1.83;1.20;;;;;;;8.05;100.00;99171.06;5048534;28;20094;-74
2023/12/13 07:16:08;;;;;;;4.78;1.67;;;;;;;8.04;100.00;99174.88;5066804;28;20032;-73
2023/12/13 07:18:34;;;;;;;3.25;1.85;;;;;;;7.94;100.00;99183.63;5063861;28;20526;-73
2023/12/13 07:20:59;;;;;;;3.65;2.03;;;;;;;7.97;100.00;99177.53;5066818;28;20064;-74
2023/12/13 07:23:25;;;;;;;2.35;1.25;;;;;;;8.01;99.84;99176.38;5072595;28;20153;-73
2023/12/13 07:25:51;;;;;;;5.45;1.58;;;;;;;7.93;100.00;99174.81;5058986;28;20040;-73
2023/12/13 07:28:18;;;;;;;4.60;1.35;;;;;;;7.88;100.00;99182.41;5069479;28;20028;-74
2023/12/13 07:30:51;;;;;;;2.35;1.40;;;;;;;7.85;100.00;99178.59;5062422;28;20039;-73
2023/12/13 07:33:16;;;;;;;3.97;2.03;;;;;;;7.86;100.00;99179.34;5059369;28;20123;-73
2023/12/13 07:35:45;;;;;;;2.75;1.58;;;;;;;7.66;100.00;99184.19;5077166;28;20123;-73
2023/12/13 07:38:10;;;;;;;1.33;1.00;;;;;;;7.77;100.00;99186.94;5067536;28;20028;-73
2023/12/13 07:40:36;;;;;;;1.88;1.23;;;;;;;7.66;100.00;99186.09;5062533;28;20044;-73
2023/12/13 07:43:01;;;;;;;2.25;1.65;;;;;;;7.79;100.00;99190.78;5061652;28;20036;-72
2023/12/13 07:45:26;;;;;;;1.90;1.70;;;;;;;7.78;100.00;99185.81;5061121;28;20024;-74
2023/12/13 07:47:52;;;;;;;4.75;1.73;;;;;;;7.85;100.00;99188.53;5060876;28;20047;-74
2023/12/13 07:50:17;;;;;;;3.95;1.35;;;;;;;7.84;100.00;99197.72;5081331;28;20519;-73
2023/12/13 07:52:43;;;;;;;2.13;1.42;;;;;;;7.95;100.00;99191.31;5073687;28;20094;-73
2023/12/13 07:55:08;;;;;;;5.90;2.28;;;;;;;7.97;100.00;99198.97;5063742;28;20028;-73
2023/12/13 07:57:34;;;;;;;2.90;1.65;;;;;;;8.05;100.00;99197.88;5063690;28;20631;-73
2023/12/13 08:00:00;;;;;;;2.17;1.40;;;;;;;8.00;100.00;99209.69;5063181;28;20051;-73
2023/12/13 08:02:26;;;;;;;6.43;1.25;;;;;;;7.88;100.00;99209.22;5061775;28;20036;-73
2023/12/13 08:04:54;;;;;;;2.28;1.10;;;;;;;7.85;100.00;99209.97;5077092;28;20036;-73
2023/12/13 08:07:19;;;;;;;1.90;1.70;;;;;;;7.96;100.00;99211.59;5065154;28;20040;-73
2023/12/13 08:09:45;;;;;;;1.52;1.23;;;;;;;8.04;100.00;99212.41;5063357;28;20419;-73
2023/12/13 08:12:10;;;;;;;5.07;1.88;;;;;;;7.80;100.00;99213.00;5062129;28;20461;-72
2023/12/13 08:14:37;;;;;;;1.90;1.35;;;;;;;7.67;100.00;99217.09;5067688;28;20545;-73
2023/12/13 08:17:08;;;;;;;1.40;1.30;;;;;;;7.71;100.00;99226.72;5076378;28;20049;-73
2023/12/13 08:19:34;;;;;;;1.73;1.15;;;;;;;7.83;100.00;99210.34;5065059;28;20041;-73
2023/12/13 08:21:59;;;;;;;2.08;1.00;;;;;;;7.74;100.00;99214.50;5077670;28;20046;-73
2023/12/13 08:24:25;;;;;;;1.00;0.93;;;;;;;7.71;100.00;99215.22;5061593;28;20072;-73
2023/12/13 08:26:50;;;;;;;2.17;1.17;;;;;;;7.93;100.00;99211.56;5062672;28;20509;-73
2023/12/13 08:29:16;;;;;;;2.22;1.90;;;;;;;7.76;100.00;99210.28;5074464;28;20037;-74
2023/12/13 08:31:41;;;;;;;2.90;1.90;;;;;;;7.79;100.00;99222.16;5064046;28;21016;-73
2023/12/13 08:34:06;;;;;;;2.55;1.33;;;;;;;7.70;100.00;99221.72;5065327;28;20035;-72
2023/12/13 08:36:32;;;;;;;2.10;1.48;;;;;;;7.61;100.00;99215.88;5077908;28;20033;-73
2023/12/13 08:38:57;;;;;;;2.67;1.70;;;;;;;7.63;100.00;99225.09;5062718;28;20031;-73
2023/12/13 08:41:23;;;;;;;2.20;1.73;;;;;;;7.41;100.00;99225.28;5058845;28;20107;-73
2023/12/13 08:43:48;;;;;;;3.42;1.27;;;;;;;7.66;100.00;99231.63;5043183;28;20583;-73
2023/12/13 08:46:14;;;;;;;1.40;1.13;;;;;;;7.75;100.00;99234.78;5046680;28;20027;-73
2023/12/13 08:48:40;;;;;;;3.53;2.00;;;;;;;7.62;100.00;99231.63;5048882;28;20103;-73
2023/12/13 08:51:06;;;;;;;2.13;1.08;;;;;;;7.48;100.00;99234.16;5060044;28;20033;-73
2023/12/13 08:53:31;;;;;;;1.35;1.23;;;;;;;7.50;100.00;99231.09;5061017;28;20115;-72
2023/12/13 08:55:56;;;;;;;6.43;1.48;;;;;;;7.60;100.00;99238.47;5067943;28;20044;-72
2023/12/13 08:58:22;;;;;;;2.53;1.50;;;;;;;7.68;100.00;99240.06;5059943;28;20111;-73
2023/12/13 09:00:47;;;;;;;3.08;1.40;;;;;;;7.75;100.00;99234.78;5059260;28;20052;-72
2023/12/13 09:03:13;;;;;;;2.47;1.73;;;;;;;7.85;100.00;99242.13;5061831;28;20426;-72
2023/12/13 09:05:38;;;;;;;1.65;1.42;;;;;;;7.88;100.00;99247.50;5058828;28;20086;-73
2023/12/13 09:08:04;;;;;;;2.80;1.85;;;;;;;7.91;100.00;99246.78;5067119;28;20043;-74
2023/12/13 09:10:30;;;;;;;4.25;1.30;;;;;;;7.77;100.00;99248.56;5063484;28;20635;-72
2023/12/13 09:12:55;;;;;;;2.72;1.73;;;;;;;7.82;100.00;99251.66;5062528;28;20025;-74
2023/12/13 09:15:21;;;;;;;3.83;1.63;;;;;;;7.84;100.00;99248.66;5058892;28;20469;-73
2023/12/13 09:17:47;;;;;;;3.90;1.45;;;;;;;7.87;100.00;99246.00;5062194;28;20472;-74
2023/12/13 09:20:15;;;;;;;4.43;1.33;;;;;;;7.86;100.00;99249.78;5060341;28;20017;-73
2023/12/13 09:22:45;;;;;;;3.00;1.52;;;;;;;7.98;100.00;99243.38;5060641;28;20045;-73
2023/12/13 09:25:16;;;;;;;3.30;1.48;;;;;;;7.73;100.00;99248.53;5062657;28;20411;-74
2023/12/13 09:27:43;;;;;;;4.82;2.03;;;;;;;7.67;100.00;99246.56;5057278;28;20029;-74
2023/12/13 09:30:09;;;;;;;1.88;1.20;;;;;;;7.79;100.00;99247.06;5060953;28;20031;-73
2023/12/13 09:32:38;;;;;;;1.40;1.30;;;;;;;7.83;100.00;99245.19;5059171;28;20067;-72
2023/12/13 09:35:04;;;;;;;1.63;1.50;;;;;;;7.70;100.00;99262.69;5058559;28;20037;-73
2023/12/13 09:37:30;;;;;;;3.92;1.30;;;;;;;7.70;100.00;99254.66;5056701;28;20426;-74
2023/12/13 09:40:02;;;;;;;3.42;1.05;;;;;;;7.66;100.00;99255.75;5065641;28;20292;-74
2023/12/13 09:42:29;;;;;;;2.55;1.60;;;;;;;7.75;100.00;99254.31;5063227;28;20051;-74
2023/12/13 09:44:55;;;;;;;2.45;1.60;;;;;;;7.77;100.00;99252.03;5075897;28;20043;-74
2023/12/13 09:47:23;;;;;;;1.52;1.13;;;;;;;7.83;100.00;99263.94;5066242;28;20045;-74
2023/12/13 09:49:50;;;;;;;2.75;1.88;;;;;;;7.79;100.00;99263.13;5061929;28;20511;-73
2023/12/13 09:52:19;;;;;;;2.88;1.23;;;;;;;7.93;100.00;99259.81;5056891;28;20041;-72
2023/12/13 09:54:46;;;;;;;1.73;1.50;;;;;;;7.96;100.00;99267.88;5067926;28;20044;-73
2023/12/13 09:57:15;;;;;;;2.22;1.10;;;;;;;8.00;100.00;99262.53;5062629;28;20020;-73
2023/12/13 09:59:45;;;;;;;4.55;1.48;;;;;;;7.89;100.00;99262.47;5058992;28;20497;-73
2023/12/13 10:02:16;;;;;;;2.20;1.17;;;;;;;7.99;100.00;99264.44;5056778;28;20499;-72
2023/12/13 10:04:43;;;;;;;2.55;1.17;;;;;;;7.99;100.00;99269.78;5057454;28;20032;-74
2023/12/13 10:07:09;;;;;;;2.42;1.10;;;;;;;7.85;100.00;99274.28;5074120;28;20127;-72
2023/12/13 10:09:35;;;;;;;2.40;1.35;;;;;;;7.98;100.00;99273.63;5059427;28;20178;-73
2023/12/13 10:12:01;;;;;;;1.42;1.17;;;;;;;7.85;100.00;99272.38;5053160;28;20087;-73
2023/12/13 10:14:29;;;;;;;1.55;1.40;;;;;;;8.00;100.00;99271.34;5065405;28;20071;-72
2023/12/13 10:16:56;;;;;;;1.70;1.13;;;;;;;7.94;100.00;99267.47;5056264;28;20035;-73
2023/12/13 10:19:21;;;;;;;2.95;1.30;;;;;;;8.07;100.00;99265.28;5030012;28;20036;-72
2023/12/13 10:21:49;;;;;;;5.38;1.35;;;;;;;7.98;100.00;99268.28;5059733;28;20048;-72
2023/12/13 10:24:16;;;;;;;1.33;1.13;;;;;;;8.02;100.00;99279.00;5065369;28;20043;-72
2023/12/13 10:26:41;;;;;;;1.95;1.40;;;;;;;7.88;100.00;99284.25;5062095;28;20124;-73
2023/12/13 10:29:07;;;;;;;1.75;1.20;;;;;;;7.79;100.00;99281.13;5061368;28;20194;-73
2023/12/13 10:31:35;;;;;;;2.28;1.30;;;;;;;7.81;100.00;99281.53;5057955;28;20110;-72
2023/12/13 10:34:01;;;;;;;1.58;1.00;;;;;;;7.92;100.00;99285.06;5063191;28;20495;-72
2023/12/13 10:36:27;;;;;;;2.17;1.23;;;;;;;7.94;100.00;99280.88;5061493;28;20044;-72
2023/12/13 10:38:55;;;;;;;1.58;1.27;;;;;;;7.99;100.00;99291.25;5064748;28;20040;-72
2023/12/13 10:41:30;;;;;;;1.10;0.90;;;;;;;8.01;100.00;99294.31;5061330;28;20045;-72
2023/12/13 10:43:58;;;;;;;0.88;0.85;;;;;;;7.82;100.00;99281.16;5065343;28;20029;-72
2023/12/13 10:46:31;;;;;;;1.98;1.38;;;;;;;7.78;100.00;99279.59;5060201;28;20506;-73
2023/12/13 10:48:58;;;;;;;1.25;1.05;;;;;;;7.77;100.00;99289.53;5066755;28;20534;-73
2023/12/13 10:51:26;;;;;;;1.90;1.15;;;;;;;7.83;100.00;99282.69;5065121;28;20418;-72
2023/12/13 10:53:52;;;;;;;1.45;1.27;;;;;;;7.78;100.00;99282.28;5065484;28;20549;-72
2023/12/13 10:56:18;;;;;;;1.90;1.27;;;;;;;7.96;100.00;99286.63;5063002;28;20020;-73
2023/12/13 10:58:44;;;;;;;1.95;1.20;;;;;;;8.01;100.00;99280.91;5077253;28;20075;-72
2023/12/13 11:01:11;;;;;;;1.48;1.20;;;;;;;7.88;100.00;99284.25;5064905;28;20044;-72
2023/12/13 11:04:04;;;;;;;1.95;1.15;;;;;;;7.75;100.00;99283.00;5060993;28;20098;-72
2023/12/13 11:06:30;;;;;;;1.52;0.90;;;;;;;7.75;100.00;99283.00;5075222;28;20068;-72
2023/12/13 11:08:56;;;;;;;2.88;1.35;;;;;;;7.81;100.00;99289.56;5061556;28;20067;-72
2023/12/13 11:11:26;;;;;;;2.85;1.50;;;;;;;7.86;100.00;99294.56;5056207;28;20483;-73
2023/12/13 11:13:53;;;;;;;1.83;1.40;;;;;;;7.81;100.00;99292.25;5066129;28;20036;-73
2023/12/13 11:16:20;;;;;;;1.73;1.00;;;;;;;7.91;100.00;99297.72;5066322;28;20033;-73
2023/12/13 11:18:51;;;;;;;2.72;1.20;;;;;;;7.73;100.00;99302.13;5062079;28;20115;-72
2023/12/13 11:21:25;;;;;;;1.30;0.80;;;;;;;7.91;100.00;99303.06;5061543;28;20068;-72
2023/12/13 11:23:54;;;;;;;1.02;0.80;;;;;;;7.82;100.00;99301.84;5058768;28;20127;-73
2023/12/13 11:26:24;;;;;;;1.85;1.08;;;;;;;7.87;100.00;99296.13;5062552;28;20479;-72
2023/12/13 11:28:51;;;;;;;1.05;0.90;;;;;;;7.96;100.00;99296.56;5061433;28;20051;-72